sensor_id;sensor_type;location;lat;lon;timestamp;P1;durP1;ratioP1;P2;durP2;ratioP2
78116;SDS011;69042;59.120;37.904;2023-06-26T00:00:22;25.02;;;13.45;;
78116;SDS011;69042;59.120;37.904;2023-06-26T00:02:49;21.63;;;13.32;;
78116;SDS011;69042;59.120;37.904;2023-06-26T00:05:15;24.95;;;13.77;;
78116;SDS011;69042;59.120;37.904;2023-06-26T00:07:41;25.35;;;13.48;;
78116;SDS011;69042;59.120;37.904;2023-06-26T00:10:08;22.23;;;12.77;;
78116;SDS011;69042;59.120;37.904;2023-06-26T00:12:34;23.77;;;13.23;;
78116;SDS011;69042;59.120;37.904;2023-06-26T00:15:01;23.30;;;11.60;;
78116;SDS011;69042;59.120;37.904;2023-06-26T00:17:27;26.08;;;12.95;;
78116;SDS011;69042;59.120;37.904;2023-06-26T00:19:53;22.05;;;13.45;;
78116;SDS011;69042;59.120;37.904;2023-06-26T00:22:21;22.17;;;12.82;;
78116;SDS011;69042;59.120;37.904;2023-06-26T00:24:47;20.50;;;12.25;;
78116;SDS011;69042;59.120;37.904;2023-06-26T00:27:13;23.23;;;13.20;;
78116;SDS011;69042;59.120;37.904;2023-06-26T00:29:40;20.13;;;12.85;;
78116;SDS011;69042;59.120;37.904;2023-06-26T00:32:06;22.73;;;12.65;;
78116;SDS011;69042;59.120;37.904;2023-06-26T00:34:34;21.75;;;12.30;;
78116;SDS011;69042;59.120;37.904;2023-06-26T00:37:00;20.98;;;12.73;;
78116;SDS011;69042;59.120;37.904;2023-06-26T00:39:26;22.02;;;13.25;;
78116;SDS011;69042;59.120;37.904;2023-06-26T00:41:53;19.75;;;11.68;;
78116;SDS011;69042;59.120;37.904;2023-06-26T00:44:22;19.90;;;12.30;;
78116;SDS011;69042;59.120;37.904;2023-06-26T00:46:48;18.45;;;11.77;;
78116;SDS011;69042;59.120;37.904;2023-06-26T00:52:06;17.23;;;11.77;;
78116;SDS011;69042;59.120;37.904;2023-06-26T00:54:33;18.77;;;11.02;;
78116;SDS011;69042;59.120;37.904;2023-06-26T00:56:59;16.88;;;11.45;;
78116;SDS011;69042;59.120;37.904;2023-06-26T00:59:26;17.75;;;11.05;;
78116;SDS011;69042;59.120;37.904;2023-06-26T01:01:55;20.27;;;10.82;;
78116;SDS011;69042;59.120;37.904;2023-06-26T01:04:21;18.50;;;10.23;;
78116;SDS011;69042;59.120;37.904;2023-06-26T01:06:47;16.48;;;9.98;;
78116;SDS011;69042;59.120;37.904;2023-06-26T01:09:19;15.77;;;10.27;;
78116;SDS011;69042;59.120;37.904;2023-06-26T01:11:48;16.55;;;9.55;;
78116;SDS011;69042;59.120;37.904;2023-06-26T01:14:15;19.83;;;10.80;;
78116;SDS011;69042;59.120;37.904;2023-06-26T01:16:44;19.67;;;11.32;;
78116;SDS011;69042;59.120;37.904;2023-06-26T01:19:15;17.08;;;10.50;;
78116;SDS011;69042;59.120;37.904;2023-06-26T01:22:01;15.85;;;9.85;;
78116;SDS011;69042;59.120;37.904;2023-06-26T01:25:29;34.13;;;11.23;;
78116;SDS011;69042;59.120;37.904;2023-06-26T01:27:33;16.27;;;10.65;;
78116;SDS011;69042;59.120;37.904;2023-06-26T01:30:02;18.23;;;10.52;;
78116;SDS011;69042;59.120;37.904;2023-06-26T01:32:30;18.17;;;10.63;;
78116;SDS011;69042;59.120;37.904;2023-06-26T01:35:02;17.15;;;11.40;;
78116;SDS011;69042;59.120;37.904;2023-06-26T01:37:29;21.58;;;15.00;;
78116;SDS011;69042;59.120;37.904;2023-06-26T01:39:55;27.58;;;15.98;;
78116;SDS011;69042;59.120;37.904;2023-06-26T01:42:22;27.00;;;14.40;;
78116;SDS011;69042;59.120;37.904;2023-06-26T01:44:48;19.45;;;12.90;;
78116;SDS011;69042;59.120;37.904;2023-06-26T01:47:16;22.25;;;13.40;;
78116;SDS011;69042;59.120;37.904;2023-06-26T01:49:54;30.05;;;12.25;;
78116;SDS011;69042;59.120;37.904;2023-06-26T01:55:17;20.00;;;12.60;;
78116;SDS011;69042;59.120;37.904;2023-06-26T01:58:04;21.25;;;13.10;;
78116;SDS011;69042;59.120;37.904;2023-06-26T02:00:32;20.85;;;11.80;;
78116;SDS011;69042;59.120;37.904;2023-06-26T02:02:59;19.77;;;11.82;;
78116;SDS011;69042;59.120;37.904;2023-06-26T02:05:25;18.38;;;10.90;;
78116;SDS011;69042;59.120;37.904;2023-06-26T02:07:51;17.85;;;10.80;;
78116;SDS011;69042;59.120;37.904;2023-06-26T02:10:18;18.35;;;10.73;;
78116;SDS011;69042;59.120;37.904;2023-06-26T02:12:44;16.58;;;10.68;;
78116;SDS011;69042;59.120;37.904;2023-06-26T02:15:12;15.98;;;10.55;;
78116;SDS011;69042;59.120;37.904;2023-06-26T02:17:39;17.95;;;11.75;;
78116;SDS011;69042;59.120;37.904;2023-06-26T02:20:05;20.17;;;13.25;;
78116;SDS011;69042;59.120;37.904;2023-06-26T02:22:36;25.50;;;16.50;;
78116;SDS011;69042;59.120;37.904;2023-06-26T02:25:02;25.42;;;18.17;;
78116;SDS011;69042;59.120;37.904;2023-06-26T02:27:32;23.35;;;17.27;;
78116;SDS011;69042;59.120;37.904;2023-06-26T02:29:58;25.73;;;17.48;;
78116;SDS011;69042;59.120;37.904;2023-06-26T02:32:24;20.27;;;15.90;;
78116;SDS011;69042;59.120;37.904;2023-06-26T02:34:50;30.10;;;17.40;;
78116;SDS011;69042;59.120;37.904;2023-06-26T02:37:19;28.08;;;16.52;;
78116;SDS011;69042;59.120;37.904;2023-06-26T02:39:46;24.05;;;15.35;;
78116;SDS011;69042;59.120;37.904;2023-06-26T02:42:13;21.48;;;14.60;;
78116;SDS011;69042;59.120;37.904;2023-06-26T02:44:39;20.98;;;13.73;;
78116;SDS011;69042;59.120;37.904;2023-06-26T02:47:06;22.23;;;14.52;;
78116;SDS011;69042;59.120;37.904;2023-06-26T02:49:33;23.90;;;13.88;;
78116;SDS011;69042;59.120;37.904;2023-06-26T02:52:00;25.08;;;14.02;;
78116;SDS011;69042;59.120;37.904;2023-06-26T02:54:28;20.40;;;13.48;;
78116;SDS011;69042;59.120;37.904;2023-06-26T02:57:00;19.88;;;12.15;;
78116;SDS011;69042;59.120;37.904;2023-06-26T02:59:29;22.25;;;13.13;;
78116;SDS011;69042;59.120;37.904;2023-06-26T03:01:56;19.48;;;11.82;;
78116;SDS011;69042;59.120;37.904;2023-06-26T03:04:29;18.92;;;11.40;;
78116;SDS011;69042;59.120;37.904;2023-06-26T03:06:55;17.98;;;11.15;;
78116;SDS011;69042;59.120;37.904;2023-06-26T03:09:22;17.75;;;10.07;;
78116;SDS011;69042;59.120;37.904;2023-06-26T03:11:49;17.75;;;10.23;;
78116;SDS011;69042;59.120;37.904;2023-06-26T03:14:15;19.40;;;12.48;;
78116;SDS011;69042;59.120;37.904;2023-06-26T03:16:42;20.08;;;11.43;;
78116;SDS011;69042;59.120;37.904;2023-06-26T03:19:08;18.55;;;10.70;;
78116;SDS011;69042;59.120;37.904;2023-06-26T03:21:54;19.48;;;11.65;;
78116;SDS011;69042;59.120;37.904;2023-06-26T03:24:21;18.92;;;12.07;;
78116;SDS011;69042;59.120;37.904;2023-06-26T03:26:47;19.58;;;12.15;;
78116;SDS011;69042;59.120;37.904;2023-06-26T03:29:13;19.65;;;11.40;;
78116;SDS011;69042;59.120;37.904;2023-06-26T03:31:40;19.67;;;12.23;;
78116;SDS011;69042;59.120;37.904;2023-06-26T03:34:07;17.58;;;11.70;;
78116;SDS011;69042;59.120;37.904;2023-06-26T03:36:33;20.10;;;11.80;;
78116;SDS011;69042;59.120;37.904;2023-06-26T03:39:04;18.45;;;10.57;;
78116;SDS011;69042;59.120;37.904;2023-06-26T03:41:30;21.08;;;12.52;;
78116;SDS011;69042;59.120;37.904;2023-06-26T03:43:57;18.10;;;12.45;;
78116;SDS011;69042;59.120;37.904;2023-06-26T03:46:29;21.27;;;13.00;;
78116;SDS011;69042;59.120;37.904;2023-06-26T03:48:57;22.63;;;12.38;;
78116;SDS011;69042;59.120;37.904;2023-06-26T03:51:23;19.73;;;12.35;;
78116;SDS011;69042;59.120;37.904;2023-06-26T03:53:50;21.45;;;12.60;;
78116;SDS011;69042;59.120;37.904;2023-06-26T03:56:16;20.38;;;12.25;;
78116;SDS011;69042;59.120;37.904;2023-06-26T03:58:43;19.00;;;12.52;;
78116;SDS011;69042;59.120;37.904;2023-06-26T04:01:10;18.45;;;11.38;;
78116;SDS011;69042;59.120;37.904;2023-06-26T04:03:36;18.58;;;11.02;;
78116;SDS011;69042;59.120;37.904;2023-06-26T04:06:03;17.48;;;10.88;;
78116;SDS011;69042;59.120;37.904;2023-06-26T04:08:29;25.42;;;11.85;;
78116;SDS011;69042;59.120;37.904;2023-06-26T04:10:55;17.80;;;11.98;;
78116;SDS011;69042;59.120;37.904;2023-06-26T04:13:23;18.63;;;12.05;;
78116;SDS011;69042;59.120;37.904;2023-06-26T04:15:49;19.35;;;10.15;;
78116;SDS011;69042;59.120;37.904;2023-06-26T04:18:16;16.60;;;10.60;;
78116;SDS011;69042;59.120;37.904;2023-06-26T04:23:35;17.13;;;11.15;;
78116;SDS011;69042;59.120;37.904;2023-06-26T04:26:01;16.48;;;9.68;;
78116;SDS011;69042;59.120;37.904;2023-06-26T04:28:28;15.77;;;8.98;;
78116;SDS011;69042;59.120;37.904;2023-06-26T04:30:54;13.45;;;8.80;;
78116;SDS011;69042;59.120;37.904;2023-06-26T04:33:21;18.65;;;10.27;;
78116;SDS011;69042;59.120;37.904;2023-06-26T04:35:47;14.60;;;10.13;;
78116;SDS011;69042;59.120;37.904;2023-06-26T04:38:15;18.85;;;10.32;;
78116;SDS011;69042;59.120;37.904;2023-06-26T04:40:41;18.52;;;10.13;;
78116;SDS011;69042;59.120;37.904;2023-06-26T04:43:08;14.07;;;9.68;;
78116;SDS011;69042;59.120;37.904;2023-06-26T04:45:34;13.50;;;8.70;;
78116;SDS011;69042;59.120;37.904;2023-06-26T04:48:01;16.80;;;8.75;;
78116;SDS011;69042;59.120;37.904;2023-06-26T04:50:28;13.20;;;7.57;;
78116;SDS011;69042;59.120;37.904;2023-06-26T04:52:55;13.30;;;9.35;;
78116;SDS011;69042;59.120;37.904;2023-06-26T04:55:25;18.65;;;9.82;;
78116;SDS011;69042;59.120;37.904;2023-06-26T04:57:51;15.55;;;9.10;;
78116;SDS011;69042;59.120;37.904;2023-06-26T05:00:18;16.75;;;9.10;;
78116;SDS011;69042;59.120;37.904;2023-06-26T05:02:44;14.05;;;8.70;;
78116;SDS011;69042;59.120;37.904;2023-06-26T05:05:10;13.18;;;8.85;;
78116;SDS011;69042;59.120;37.904;2023-06-26T05:07:41;11.57;;;7.50;;
78116;SDS011;69042;59.120;37.904;2023-06-26T05:10:09;13.25;;;8.02;;
78116;SDS011;69042;59.120;37.904;2023-06-26T05:12:35;12.52;;;7.60;;
78116;SDS011;69042;59.120;37.904;2023-06-26T05:15:02;13.75;;;7.65;;
78116;SDS011;69042;59.120;37.904;2023-06-26T05:17:28;13.27;;;7.05;;
78116;SDS011;69042;59.120;37.904;2023-06-26T05:19:55;14.05;;;8.15;;
78116;SDS011;69042;59.120;37.904;2023-06-26T05:22:21;12.02;;;7.75;;
78116;SDS011;69042;59.120;37.904;2023-06-26T05:24:48;10.70;;;7.45;;
78116;SDS011;69042;59.120;37.904;2023-06-26T05:27:19;10.60;;;6.65;;
78116;SDS011;69042;59.120;37.904;2023-06-26T05:29:48;13.40;;;7.85;;
78116;SDS011;69042;59.120;37.904;2023-06-26T05:32:15;10.50;;;6.95;;
78116;SDS011;69042;59.120;37.904;2023-06-26T05:34:48;10.10;;;7.28;;
78116;SDS011;69042;59.120;37.904;2023-06-26T05:37:17;13.88;;;6.85;;
78116;SDS011;69042;59.120;37.904;2023-06-26T05:39:48;13.63;;;6.80;;
78116;SDS011;69042;59.120;37.904;2023-06-26T05:42:15;12.27;;;7.50;;
78116;SDS011;69042;59.120;37.904;2023-06-26T05:44:41;11.27;;;7.35;;
78116;SDS011;69042;59.120;37.904;2023-06-26T05:47:08;11.95;;;7.90;;
78116;SDS011;69042;59.120;37.904;2023-06-26T05:49:34;10.52;;;7.32;;
78116;SDS011;69042;59.120;37.904;2023-06-26T05:52:00;16.05;;;7.47;;
78116;SDS011;69042;59.120;37.904;2023-06-26T05:54:27;11.57;;;7.05;;
78116;SDS011;69042;59.120;37.904;2023-06-26T05:56:55;11.65;;;7.40;;
78116;SDS011;69042;59.120;37.904;2023-06-26T05:59:25;10.90;;;6.80;;
78116;SDS011;69042;59.120;37.904;2023-06-26T06:01:52;13.13;;;7.93;;
78116;SDS011;69042;59.120;37.904;2023-06-26T06:04:19;13.20;;;6.88;;
78116;SDS011;69042;59.120;37.904;2023-06-26T06:06:45;13.02;;;6.85;;
78116;SDS011;69042;59.120;37.904;2023-06-26T06:09:11;10.40;;;7.20;;
78116;SDS011;69042;59.120;37.904;2023-06-26T06:11:38;12.25;;;8.40;;
78116;SDS011;69042;59.120;37.904;2023-06-26T06:14:04;10.93;;;6.25;;
78116;SDS011;69042;59.120;37.904;2023-06-26T06:16:31;10.57;;;6.57;;
78116;SDS011;69042;59.120;37.904;2023-06-26T06:18:57;12.82;;;8.45;;
78116;SDS011;69042;59.120;37.904;2023-06-26T06:21:23;14.05;;;6.80;;
78116;SDS011;69042;59.120;37.904;2023-06-26T06:23:49;11.55;;;7.20;;
78116;SDS011;69042;59.120;37.904;2023-06-26T06:26:16;13.18;;;7.15;;
78116;SDS011;69042;59.120;37.904;2023-06-26T06:28:42;10.48;;;6.70;;
78116;SDS011;69042;59.120;37.904;2023-06-26T06:31:09;14.05;;;7.22;;
78116;SDS011;69042;59.120;37.904;2023-06-26T06:33:35;10.30;;;6.55;;
78116;SDS011;69042;59.120;37.904;2023-06-26T06:36:01;10.65;;;6.63;;
78116;SDS011;69042;59.120;37.904;2023-06-26T06:38:27;23.30;;;8.70;;
78116;SDS011;69042;59.120;37.904;2023-06-26T06:40:54;10.80;;;6.93;;
78116;SDS011;69042;59.120;37.904;2023-06-26T06:43:20;11.93;;;6.88;;
78116;SDS011;69042;59.120;37.904;2023-06-26T06:45:46;10.65;;;6.55;;
78116;SDS011;69042;59.120;37.904;2023-06-26T06:48:13;11.95;;;6.30;;
78116;SDS011;69042;59.120;37.904;2023-06-26T06:50:39;8.98;;;5.97;;
78116;SDS011;69042;59.120;37.904;2023-06-26T06:53:05;13.23;;;8.38;;
78116;SDS011;69042;59.120;37.904;2023-06-26T06:55:33;11.07;;;6.60;;
78116;SDS011;69042;59.120;37.904;2023-06-26T06:57:59;9.63;;;5.80;;
78116;SDS011;69042;59.120;37.904;2023-06-26T07:00:25;11.40;;;6.32;;
78116;SDS011;69042;59.120;37.904;2023-06-26T07:02:52;10.85;;;5.90;;
78116;SDS011;69042;59.120;37.904;2023-06-26T07:05:18;11.50;;;6.20;;
78116;SDS011;69042;59.120;37.904;2023-06-26T07:07:45;11.65;;;7.25;;
78116;SDS011;69042;59.120;37.904;2023-06-26T07:10:12;12.00;;;7.72;;
78116;SDS011;69042;59.120;37.904;2023-06-26T07:12:39;8.27;;;5.10;;
78116;SDS011;69042;59.120;37.904;2023-06-26T07:15:06;7.75;;;5.30;;
78116;SDS011;69042;59.120;37.904;2023-06-26T07:17:33;8.35;;;4.85;;
78116;SDS011;69042;59.120;37.904;2023-06-26T07:20:00;9.57;;;5.70;;
78116;SDS011;69042;59.120;37.904;2023-06-26T07:22:31;8.45;;;4.45;;
78116;SDS011;69042;59.120;37.904;2023-06-26T07:24:57;7.70;;;4.85;;
78116;SDS011;69042;59.120;37.904;2023-06-26T07:27:23;7.20;;;4.47;;
78116;SDS011;69042;59.120;37.904;2023-06-26T07:29:51;10.45;;;5.22;;
78116;SDS011;69042;59.120;37.904;2023-06-26T07:32:17;12.43;;;5.40;;
78116;SDS011;69042;59.120;37.904;2023-06-26T07:34:44;8.07;;;5.15;;
78116;SDS011;69042;59.120;37.904;2023-06-26T07:37:10;7.68;;;4.50;;
78116;SDS011;69042;59.120;37.904;2023-06-26T07:39:36;6.25;;;3.97;;
78116;SDS011;69042;59.120;37.904;2023-06-26T07:42:03;8.70;;;4.60;;
78116;SDS011;69042;59.120;37.904;2023-06-26T07:44:29;8.85;;;4.35;;
78116;SDS011;69042;59.120;37.904;2023-06-26T07:46:55;7.65;;;4.10;;
78116;SDS011;69042;59.120;37.904;2023-06-26T07:49:22;8.93;;;4.30;;
78116;SDS011;69042;59.120;37.904;2023-06-26T07:51:48;9.10;;;4.30;;
78116;SDS011;69042;59.120;37.904;2023-06-26T07:54:14;7.03;;;4.20;;
78116;SDS011;69042;59.120;37.904;2023-06-26T07:56:57;6.25;;;3.80;;
78116;SDS011;69042;59.120;37.904;2023-06-26T07:59:26;9.23;;;4.30;;
78116;SDS011;69042;59.120;37.904;2023-06-26T08:01:54;5.97;;;3.45;;
78116;SDS011;69042;59.120;37.904;2023-06-26T08:04:23;6.18;;;3.72;;
78116;SDS011;69042;59.120;37.904;2023-06-26T08:06:53;5.97;;;3.35;;
78116;SDS011;69042;59.120;37.904;2023-06-26T08:09:21;8.20;;;3.15;;
78116;SDS011;69042;59.120;37.904;2023-06-26T08:11:50;7.05;;;4.10;;
78116;SDS011;69042;59.120;37.904;2023-06-26T08:14:17;7.13;;;3.50;;
78116;SDS011;69042;59.120;37.904;2023-06-26T08:16:43;9.10;;;3.60;;
78116;SDS011;69042;59.120;37.904;2023-06-26T08:19:10;6.10;;;3.15;;
78116;SDS011;69042;59.120;37.904;2023-06-26T08:21:37;6.10;;;3.35;;
78116;SDS011;69042;59.120;37.904;2023-06-26T08:24:03;8.25;;;3.45;;
78116;SDS011;69042;59.120;37.904;2023-06-26T08:26:29;8.60;;;5.57;;
78116;SDS011;69042;59.120;37.904;2023-06-26T08:28:56;5.53;;;3.20;;
78116;SDS011;69042;59.120;37.904;2023-06-26T08:31:22;5.75;;;3.30;;
78116;SDS011;69042;59.120;37.904;2023-06-26T08:33:49;8.45;;;4.63;;
78116;SDS011;69042;59.120;37.904;2023-06-26T08:36:15;6.28;;;3.30;;
78116;SDS011;69042;59.120;37.904;2023-06-26T08:38:42;7.03;;;3.33;;
78116;SDS011;69042;59.120;37.904;2023-06-26T08:41:09;8.68;;;3.40;;
78116;SDS011;69042;59.120;37.904;2023-06-26T08:43:35;8.98;;;3.88;;
78116;SDS011;69042;59.120;37.904;2023-06-26T08:46:02;7.65;;;3.25;;
78116;SDS011;69042;59.120;37.904;2023-06-26T08:48:32;5.20;;;2.80;;
78116;SDS011;69042;59.120;37.904;2023-06-26T08:51:09;6.05;;;3.20;;
78116;SDS011;69042;59.120;37.904;2023-06-26T08:53:52;5.95;;;3.22;;
78116;SDS011;69042;59.120;37.904;2023-06-26T08:58:53;6.75;;;3.28;;
78116;SDS011;69042;59.120;37.904;2023-06-26T09:01:20;7.47;;;3.20;;
78116;SDS011;69042;59.120;37.904;2023-06-26T09:03:47;7.70;;;3.50;;
78116;SDS011;69042;59.120;37.904;2023-06-26T09:06:14;6.00;;;3.28;;
78116;SDS011;69042;59.120;37.904;2023-06-26T09:08:40;8.23;;;3.33;;
78116;SDS011;69042;59.120;37.904;2023-06-26T09:11:06;6.93;;;3.70;;
78116;SDS011;69042;59.120;37.904;2023-06-26T09:13:33;5.85;;;3.35;;
78116;SDS011;69042;59.120;37.904;2023-06-26T09:16:03;6.63;;;3.03;;
78116;SDS011;69042;59.120;37.904;2023-06-26T09:18:32;5.80;;;3.28;;
78116;SDS011;69042;59.120;37.904;2023-06-26T09:20:58;6.13;;;3.10;;
78116;SDS011;69042;59.120;37.904;2023-06-26T09:23:26;4.80;;;2.80;;
78116;SDS011;69042;59.120;37.904;2023-06-26T09:25:52;5.63;;;3.50;;
78116;SDS011;69042;59.120;37.904;2023-06-26T09:28:19;6.47;;;3.30;;
78116;SDS011;69042;59.120;37.904;2023-06-26T09:30:46;6.50;;;3.17;;
78116;SDS011;69042;59.120;37.904;2023-06-26T09:33:16;6.22;;;3.30;;
78116;SDS011;69042;59.120;37.904;2023-06-26T09:35:43;6.13;;;3.60;;
78116;SDS011;69042;59.120;37.904;2023-06-26T09:38:11;6.30;;;3.45;;
78116;SDS011;69042;59.120;37.904;2023-06-26T09:40:38;7.70;;;4.25;;
78116;SDS011;69042;59.120;37.904;2023-06-26T09:43:05;6.53;;;3.80;;
78116;SDS011;69042;59.120;37.904;2023-06-26T09:45:34;7.35;;;3.88;;
78116;SDS011;69042;59.120;37.904;2023-06-26T09:48:05;5.30;;;3.05;;
78116;SDS011;69042;59.120;37.904;2023-06-26T09:50:34;5.35;;;3.30;;
78116;SDS011;69042;59.120;37.904;2023-06-26T09:53:08;6.43;;;3.20;;
78116;SDS011;69042;59.120;37.904;2023-06-26T09:55:36;5.78;;;3.30;;
78116;SDS011;69042;59.120;37.904;2023-06-26T09:58:03;7.03;;;3.20;;
78116;SDS011;69042;59.120;37.904;2023-06-26T10:00:33;7.00;;;3.20;;
78116;SDS011;69042;59.120;37.904;2023-06-26T10:02:59;6.95;;;3.03;;
78116;SDS011;69042;59.120;37.904;2023-06-26T10:05:26;7.90;;;4.00;;
78116;SDS011;69042;59.120;37.904;2023-06-26T10:07:54;6.63;;;3.60;;
78116;SDS011;69042;59.120;37.904;2023-06-26T10:10:22;5.78;;;3.10;;
78116;SDS011;69042;59.120;37.904;2023-06-26T10:12:51;5.10;;;3.00;;
78116;SDS011;69042;59.120;37.904;2023-06-26T10:15:25;7.20;;;3.08;;
78116;SDS011;69042;59.120;37.904;2023-06-26T10:17:53;8.95;;;3.30;;
78116;SDS011;69042;59.120;37.904;2023-06-26T10:20:25;5.43;;;3.22;;
78116;SDS011;69042;59.120;37.904;2023-06-26T10:22:52;6.45;;;3.20;;
78116;SDS011;69042;59.120;37.904;2023-06-26T10:25:22;5.70;;;3.00;;
78116;SDS011;69042;59.120;37.904;2023-06-26T10:27:54;6.80;;;3.03;;
78116;SDS011;69042;59.120;37.904;2023-06-26T10:30:24;5.72;;;3.17;;
78116;SDS011;69042;59.120;37.904;2023-06-26T10:33:00;6.43;;;2.90;;
78116;SDS011;69042;59.120;37.904;2023-06-26T10:35:28;5.78;;;3.10;;
78116;SDS011;69042;59.120;37.904;2023-06-26T10:38:02;5.78;;;3.30;;
78116;SDS011;69042;59.120;37.904;2023-06-26T10:40:42;6.18;;;3.33;;
78116;SDS011;69042;59.120;37.904;2023-06-26T10:43:11;5.65;;;3.03;;
78116;SDS011;69042;59.120;37.904;2023-06-26T10:45:45;6.13;;;3.00;;
78116;SDS011;69042;59.120;37.904;2023-06-26T10:48:18;6.30;;;3.17;;
78116;SDS011;69042;59.120;37.904;2023-06-26T10:50:46;5.07;;;2.67;;
78116;SDS011;69042;59.120;37.904;2023-06-26T10:55:59;6.75;;;3.15;;
78116;SDS011;69042;59.120;37.904;2023-06-26T11:03:40;5.78;;;2.88;;
78116;SDS011;69042;59.120;37.904;2023-06-26T11:06:14;6.10;;;3.20;;
78116;SDS011;69042;59.120;37.904;2023-06-26T11:08:44;6.82;;;3.05;;
78116;SDS011;69042;59.120;37.904;2023-06-26T11:11:12;5.35;;;3.10;;
78116;SDS011;69042;59.120;37.904;2023-06-26T11:13:39;5.53;;;3.13;;
78116;SDS011;69042;59.120;37.904;2023-06-26T11:16:06;7.70;;;3.47;;
78116;SDS011;69042;59.120;37.904;2023-06-26T11:18:32;5.32;;;2.95;;
78116;SDS011;69042;59.120;37.904;2023-06-26T11:21:08;7.35;;;3.00;;
78116;SDS011;69042;59.120;37.904;2023-06-26T11:23:37;6.95;;;2.90;;
78116;SDS011;69042;59.120;37.904;2023-06-26T11:26:16;6.63;;;3.28;;
78116;SDS011;69042;59.120;37.904;2023-06-26T11:28:47;6.32;;;2.90;;
78116;SDS011;69042;59.120;37.904;2023-06-26T11:31:55;5.00;;;2.90;;
78116;SDS011;69042;59.120;37.904;2023-06-26T11:34:11;5.00;;;3.03;;
78116;SDS011;69042;59.120;37.904;2023-06-26T11:36:41;5.03;;;2.53;;
78116;SDS011;69042;59.120;37.904;2023-06-26T11:39:10;5.35;;;2.70;;
78116;SDS011;69042;59.120;37.904;2023-06-26T11:41:37;4.82;;;2.80;;
78116;SDS011;69042;59.120;37.904;2023-06-26T11:44:04;4.95;;;2.70;;
78116;SDS011;69042;59.120;37.904;2023-06-26T11:46:35;8.18;;;3.15;;
78116;SDS011;69042;59.120;37.904;2023-06-26T11:51:33;5.43;;;2.85;;
78116;SDS011;69042;59.120;37.904;2023-06-26T11:54:00;6.55;;;3.55;;
78116;SDS011;69042;59.120;37.904;2023-06-26T11:56:28;6.15;;;3.00;;
78116;SDS011;69042;59.120;37.904;2023-06-26T11:59:05;4.82;;;2.70;;
78116;SDS011;69042;59.120;37.904;2023-06-26T12:01:42;5.97;;;2.85;;
78116;SDS011;69042;59.120;37.904;2023-06-26T12:04:16;4.43;;;2.70;;
78116;SDS011;69042;59.120;37.904;2023-06-26T12:06:46;5.82;;;2.53;;
78116;SDS011;69042;59.120;37.904;2023-06-26T12:09:14;4.82;;;2.80;;
78116;SDS011;69042;59.120;37.904;2023-06-26T12:11:43;5.25;;;2.70;;
78116;SDS011;69042;59.120;37.904;2023-06-26T12:14:10;8.10;;;3.67;;
78116;SDS011;69042;59.120;37.904;2023-06-26T12:16:37;4.45;;;2.60;;
78116;SDS011;69042;59.120;37.904;2023-06-26T12:19:05;4.97;;;2.80;;
78116;SDS011;69042;59.120;37.904;2023-06-26T12:21:43;4.93;;;2.80;;
78116;SDS011;69042;59.120;37.904;2023-06-26T12:24:15;5.18;;;2.70;;
78116;SDS011;69042;59.120;37.904;2023-06-26T12:26:47;4.82;;;2.75;;
78116;SDS011;69042;59.120;37.904;2023-06-26T12:29:20;4.22;;;2.60;;
78116;SDS011;69042;59.120;37.904;2023-06-26T12:31:51;6.68;;;2.88;;
78116;SDS011;69042;59.120;37.904;2023-06-26T12:34:37;4.57;;;2.75;;
78116;SDS011;69042;59.120;37.904;2023-06-26T12:37:08;5.38;;;2.97;;
78116;SDS011;69042;59.120;37.904;2023-06-26T12:42:13;4.07;;;2.40;;
78116;SDS011;69042;59.120;37.904;2023-06-26T12:44:46;4.45;;;2.50;;
78116;SDS011;69042;59.120;37.904;2023-06-26T12:49:41;5.65;;;2.70;;
78116;SDS011;69042;59.120;37.904;2023-06-26T12:52:12;7.57;;;5.03;;
78116;SDS011;69042;59.120;37.904;2023-06-26T12:54:40;11.00;;;9.70;;
78116;SDS011;69042;59.120;37.904;2023-06-26T12:57:07;9.13;;;5.07;;
78116;SDS011;69042;59.120;37.904;2023-06-26T12:59:35;5.07;;;2.92;;
78116;SDS011;69042;59.120;37.904;2023-06-26T13:02:03;5.00;;;2.88;;
78116;SDS011;69042;59.120;37.904;2023-06-26T13:04:30;4.80;;;2.90;;
78116;SDS011;69042;59.120;37.904;2023-06-26T13:06:57;4.90;;;2.58;;
78116;SDS011;69042;59.120;37.904;2023-06-26T13:09:24;5.18;;;2.80;;
78116;SDS011;69042;59.120;37.904;2023-06-26T13:11:51;4.50;;;2.70;;
78116;SDS011;69042;59.120;37.904;2023-06-26T13:14:18;5.20;;;2.60;;
78116;SDS011;69042;59.120;37.904;2023-06-26T13:16:44;5.57;;;2.40;;
78116;SDS011;69042;59.120;37.904;2023-06-26T13:19:11;4.15;;;2.30;;
78116;SDS011;69042;59.120;37.904;2023-06-26T13:21:37;4.45;;;2.35;;
78116;SDS011;69042;59.120;37.904;2023-06-26T13:24:04;5.32;;;2.45;;
78116;SDS011;69042;59.120;37.904;2023-06-26T13:26:31;5.53;;;2.80;;
78116;SDS011;69042;59.120;37.904;2023-06-26T13:28:58;5.07;;;2.70;;
78116;SDS011;69042;59.120;37.904;2023-06-26T13:31:24;5.57;;;2.63;;
78116;SDS011;69042;59.120;37.904;2023-06-26T13:33:50;4.60;;;2.65;;
78116;SDS011;69042;59.120;37.904;2023-06-26T13:36:18;4.85;;;2.33;;
78116;SDS011;69042;59.120;37.904;2023-06-26T13:38:46;4.88;;;2.38;;
78116;SDS011;69042;59.120;37.904;2023-06-26T13:41:14;6.20;;;2.60;;
78116;SDS011;69042;59.120;37.904;2023-06-26T13:43:43;4.70;;;2.80;;
78116;SDS011;69042;59.120;37.904;2023-06-26T13:46:09;4.88;;;2.70;;
78116;SDS011;69042;59.120;37.904;2023-06-26T13:48:35;6.20;;;2.78;;
78116;SDS011;69042;59.120;37.904;2023-06-26T13:53:28;5.35;;;3.10;;
78116;SDS011;69042;59.120;37.904;2023-06-26T13:55:54;5.80;;;2.85;;
78116;SDS011;69042;59.120;37.904;2023-06-26T13:58:21;5.35;;;3.00;;
78116;SDS011;69042;59.120;37.904;2023-06-26T14:00:48;5.35;;;3.08;;
78116;SDS011;69042;59.120;37.904;2023-06-26T14:03:14;4.75;;;2.90;;
78116;SDS011;69042;59.120;37.904;2023-06-26T14:05:41;5.15;;;2.75;;
78116;SDS011;69042;59.120;37.904;2023-06-26T14:08:07;5.10;;;2.65;;
78116;SDS011;69042;59.120;37.904;2023-06-26T14:10:34;7.00;;;2.90;;
78116;SDS011;69042;59.120;37.904;2023-06-26T14:13:00;6.95;;;2.80;;
78116;SDS011;69042;59.120;37.904;2023-06-26T14:15:27;5.82;;;2.60;;
78116;SDS011;69042;59.120;37.904;2023-06-26T14:17:53;6.05;;;3.00;;
78116;SDS011;69042;59.120;37.904;2023-06-26T14:20:21;4.80;;;2.90;;
78116;SDS011;69042;59.120;37.904;2023-06-26T14:22:48;4.85;;;2.80;;
78116;SDS011;69042;59.120;37.904;2023-06-26T14:25:15;6.18;;;2.88;;
78116;SDS011;69042;59.120;37.904;2023-06-26T14:27:42;4.95;;;2.88;;
78116;SDS011;69042;59.120;37.904;2023-06-26T14:30:09;5.72;;;3.38;;
78116;SDS011;69042;59.120;37.904;2023-06-26T14:32:36;6.05;;;3.00;;
78116;SDS011;69042;59.120;37.904;2023-06-26T14:35:03;6.68;;;3.22;;
78116;SDS011;69042;59.120;37.904;2023-06-26T14:37:32;6.65;;;3.03;;
78116;SDS011;69042;59.120;37.904;2023-06-26T14:39:59;5.60;;;3.00;;
78116;SDS011;69042;59.120;37.904;2023-06-26T14:42:25;5.00;;;3.10;;
78116;SDS011;69042;59.120;37.904;2023-06-26T14:44:52;4.65;;;2.97;;
78116;SDS011;69042;59.120;37.904;2023-06-26T14:47:18;5.63;;;3.10;;
78116;SDS011;69042;59.120;37.904;2023-06-26T14:49:44;8.32;;;3.50;;
78116;SDS011;69042;59.120;37.904;2023-06-26T14:52:11;5.10;;;2.85;;
78116;SDS011;69042;59.120;37.904;2023-06-26T14:54:37;10.63;;;2.95;;
78116;SDS011;69042;59.120;37.904;2023-06-26T14:57:08;8.32;;;4.57;;